ニース/コート・ダジュール の空港の天気 - METARとTAF

コート・ダジュール空港(ニース) ( LFMN / NCE ) - フランス ニース
飛行場実況気象(Metar)
観測時間03/28 23:00 CEST (03/28 21:00 UTC)
風向・風速北北西 4m/s
視程10km以上
天気現象
なし
気温13℃
湿度67%
気圧1024hPa
METARLFMN 282100Z 34008KT CAVOK 13/07 Q1024 NOSIG
過去の天気等 Google飛行場航空写真 Wunderground天気予報

過去48時間のMETAR

飛行場予報(TAF)
発表時間: 3/28 22:00 CEST (3/28 20:00 UTC)
予報対象時間: 28日23時 CEST ~ 30日5時 CEST
風向・風速北北西 4m/s
視程10km以上
なし
29日11時 CEST ~ 29日12時 CEST に徐々に
風向・風速南南東 5m/s
29日22時 CEST ~ 30日1時 CEST に徐々に
風向・風速北北西 4m/s
TAF LFMN 282000Z 2821/3003 34008KT CAVOK
BECMG 2909/2910 16010KT
BECMG 2920/2923 34008KT